createdAt,value
2023-04-02T05:41:17.955Z,2.20
2023-04-02T05:45:06.057Z,2.25
2023-04-02T05:48:44.392Z,2.17
2023-04-02T05:52:28.206Z,1.93
2023-04-02T05:56:26.043Z,1.05
2023-04-02T05:59:59.505Z,1.35
2023-04-02T06:03:35.808Z,1.95
2023-04-02T06:07:31.017Z,2.00
2023-04-02T06:11:16.573Z,2.55
2023-04-02T06:15:01.299Z,2.33
2023-04-02T06:18:34.713Z,5.82
2023-04-02T06:22:28.521Z,3.40
2023-04-02T06:26:05.384Z,3.78
2023-04-02T06:29:40.926Z,2.70
2023-04-02T06:33:12.580Z,3.08
2023-04-02T06:36:40.087Z,3.50
2023-04-02T06:40:33.019Z,3.28
2023-04-02T06:44:31.474Z,2.15
2023-04-02T06:48:19.926Z,4.90
2023-04-02T06:51:50.976Z,3.60
2023-04-02T06:55:43.308Z,5.70
2023-04-02T06:59:13.823Z,4.60
2023-04-02T07:02:43.125Z,3.55
2023-04-02T07:06:23.358Z,2.30
2023-04-02T07:09:48.201Z,3.67
2023-04-02T07:13:22.582Z,2.60
2023-04-02T07:16:48.782Z,3.00
2023-04-02T07:20:30.944Z,2.05
2023-04-02T07:24:46.589Z,3.03
2023-04-02T07:28:22.768Z,2.97
2023-04-02T07:31:56.304Z,2.00
2023-04-02T07:35:23.826Z,1.55
2023-04-02T07:38:51.516Z,4.60
2023-04-02T07:42:16.833Z,1.67
2023-04-02T07:45:41.622Z,2.17
2023-04-02T07:49:10.471Z,2.72
2023-04-02T07:52:33.904Z,2.13
2023-04-02T07:56:05.615Z,2.80
2023-04-02T07:59:30.051Z,2.85
2023-04-02T08:02:59.363Z,2.95
2023-04-02T08:06:23.659Z,2.90
2023-04-02T08:09:46.593Z,3.28
2023-04-02T08:13:26.880Z,4.25
2023-04-02T08:16:54.473Z,2.75
2023-04-02T08:20:22.646Z,2.15
2023-04-02T08:23:48.111Z,2.25
2023-04-02T08:27:28.528Z,4.45
2023-04-02T08:34:20.920Z,4.22
2023-04-02T08:37:45.543Z,2.45
2023-04-02T08:45:42.100Z,2.05
2023-04-02T08:49:24.559Z,2.92
2023-04-02T08:52:47.585Z,3.55
2023-04-02T08:56:42.095Z,2.78
2023-04-02T09:00:45.684Z,3.13
2023-04-02T09:04:21.807Z,2.38
2023-04-02T09:08:05.394Z,2.63
2023-04-02T09:12:02.043Z,2.08
2023-04-02T09:20:18.580Z,2.28
2023-04-02T09:23:52.426Z,1.17
2023-04-02T09:32:03.989Z,2.30
2023-04-02T09:40:13.633Z,1.92
2023-04-02T09:47:28.776Z,0.60
2023-04-02T09:50:51.025Z,0.60
2023-04-02T09:54:17.045Z,0.52
2023-04-02T09:57:39.325Z,1.60
2023-04-02T10:01:02.134Z,0.73
2023-04-02T10:04:36.518Z,0.52
2023-04-02T10:08:21.005Z,0.43
2023-04-02T10:11:53.183Z,1.58
2023-04-02T10:15:22.966Z,1.33
2023-04-02T10:19:07.321Z,0.45
2023-04-02T10:22:29.475Z,0.80
2023-04-02T10:26:17.311Z,0.93
2023-04-02T10:29:44.913Z,0.93
2023-04-02T10:33:30.011Z,1.02
2023-04-02T10:36:59.480Z,1.60
2023-04-02T10:40:59.429Z,1.13
2023-04-02T10:44:37.513Z,0.47
2023-04-02T10:48:36.623Z,1.67
2023-04-02T10:52:05.361Z,0.90
2023-04-02T10:55:32.192Z,2.20
2023-04-02T10:58:59.400Z,2.35
2023-04-02T11:02:46.848Z,0.73
2023-04-02T11:06:31.074Z,1.10
2023-04-02T11:09:58.019Z,2.28
2023-04-02T11:13:44.915Z,1.23
2023-04-02T11:17:13.594Z,1.13
2023-04-02T11:20:49.082Z,2.15
2023-04-02T11:24:30.253Z,1.00
2023-04-02T11:27:52.496Z,0.75
2023-04-02T11:31:21.660Z,0.60
2023-04-02T11:34:59.551Z,1.13
2023-04-02T11:38:27.585Z,1.27
2023-04-02T11:42:23.515Z,0.70
2023-04-02T11:45:52.900Z,1.95
2023-04-02T11:49:36.049Z,2.13
2023-04-02T11:53:11.750Z,0.28
2023-04-02T11:56:49.096Z,0.00
2023-04-02T12:00:23.162Z,0.00
2023-04-02T12:03:45.154Z,0.00
2023-04-02T12:07:10.851Z,0.00
2023-04-02T12:10:49.601Z,0.10
2023-04-02T12:14:46.334Z,0.00
2023-04-02T12:18:16.237Z,0.00
2023-04-02T12:21:38.818Z,0.03
2023-04-02T12:25:21.778Z,0.30
2023-04-02T12:28:46.540Z,0.00
2023-04-02T12:32:29.999Z,0.10
2023-04-02T12:36:00.032Z,0.05
2023-04-02T12:39:24.660Z,0.10
2023-04-02T12:42:48.770Z,0.00
2023-04-02T12:46:15.190Z,0.00
2023-04-02T12:49:43.542Z,0.43
2023-04-02T12:53:21.453Z,0.00
2023-04-02T12:56:43.874Z,0.00
2023-04-02T13:00:21.167Z,0.30
2023-04-02T13:03:43.243Z,0.00
2023-04-02T13:07:05.310Z,0.00
2023-04-02T13:10:28.321Z,0.00
2023-04-02T13:13:50.897Z,0.00
2023-04-02T13:17:36.948Z,0.00
2023-04-02T13:21:03.642Z,0.43
2023-04-02T13:24:33.187Z,0.00
2023-04-02T13:27:56.099Z,0.25
2023-04-02T13:31:18.071Z,0.47
2023-04-02T13:34:40.059Z,0.08
2023-04-02T13:38:03.233Z,0.00
2023-04-02T13:41:28.459Z,0.00
2023-04-02T13:44:51.208Z,0.08
2023-04-02T13:48:16.002Z,0.13
2023-04-02T13:51:41.806Z,0.00
2023-04-02T13:55:04.424Z,0.00
2023-04-02T13:58:26.628Z,0.00
2023-04-02T14:01:51.662Z,0.00
2023-04-02T14:05:25.669Z,0.00
2023-04-02T14:09:27.616Z,0.00
2023-04-02T14:13:12.533Z,0.00
2023-04-02T14:16:56.306Z,0.10
2023-04-02T14:20:24.307Z,0.00
2023-04-02T14:23:49.086Z,0.00
2023-04-02T14:27:44.441Z,0.00
2023-04-02T14:31:29.017Z,0.00
2023-04-02T14:35:15.756Z,0.10
2023-04-02T14:38:50.830Z,0.00
2023-04-02T14:42:36.701Z,0.00
2023-04-02T14:46:08.984Z,0.00
2023-04-02T14:49:40.030Z,0.00
2023-04-02T14:53:08.706Z,0.00
2023-04-02T14:56:48.177Z,0.03
2023-04-02T15:00:32.716Z,0.00
2023-04-02T15:04:20.620Z,0.00
2023-04-02T15:07:50.698Z,0.00
2023-04-02T15:11:35.419Z,0.10
2023-04-02T15:15:08.403Z,0.38
2023-04-02T15:18:30.843Z,0.30
2023-04-02T15:22:14.214Z,0.08
2023-04-02T15:25:51.073Z,0.00
2023-04-02T15:29:43.353Z,0.00
2023-04-02T15:33:30.025Z,0.10
2023-04-02T15:37:06.124Z,0.50
2023-04-02T15:40:34.194Z,0.13
2023-04-02T15:44:02.750Z,0.40
2023-04-02T15:47:51.671Z,0.10
2023-04-02T15:51:29.777Z,0.03
2023-04-02T15:55:22.845Z,0.10
2023-04-02T15:59:02.613Z,0.05
2023-04-02T16:02:42.514Z,0.00
2023-04-02T16:06:27.176Z,0.03
2023-04-02T16:10:02.713Z,0.10
2023-04-02T16:13:30.891Z,0.00
2023-04-02T16:16:56.029Z,0.03
2023-04-02T16:20:32.872Z,0.13
2023-04-02T16:23:55.074Z,0.00
2023-04-02T16:27:38.046Z,0.00
2023-04-02T16:31:22.935Z,0.08
2023-04-02T16:35:15.227Z,0.10
2023-04-02T16:39:23.473Z,2.35
2023-04-02T16:43:07.032Z,3.03
2023-04-02T16:46:41.050Z,0.85
2023-04-02T16:50:14.818Z,0.28
2023-04-02T16:54:01.552Z,0.38
2023-04-02T16:57:59.295Z,0.15
2023-04-02T17:01:40.021Z,0.30
2023-04-02T17:05:27.921Z,0.00
2023-04-02T17:09:22.073Z,0.10
2023-04-02T17:12:52.613Z,0.30
2023-04-02T17:16:19.878Z,0.30
2023-04-02T17:19:44.319Z,0.08
2023-04-02T17:23:06.732Z,0.10
2023-04-02T17:26:32.671Z,0.43
2023-04-02T17:29:59.809Z,0.47
2023-04-02T17:33:27.230Z,0.22
2023-04-02T17:37:07.344Z,0.10
2023-04-02T17:40:49.130Z,0.20
2023-04-02T17:44:32.060Z,0.47
2023-04-02T17:47:59.669Z,0.00
2023-04-02T17:51:34.536Z,0.55
2023-04-02T17:55:28.494Z,0.35
2023-04-02T17:59:23.886Z,0.00
2023-04-02T18:03:01.524Z,0.00
2023-04-02T18:06:33.342Z,0.00
2023-04-02T18:10:13.864Z,0.08
2023-04-02T18:13:40.251Z,0.38
2023-04-02T18:17:33.076Z,0.73
2023-04-02T18:21:26.275Z,0.30
2023-04-02T18:24:59.171Z,0.00
2023-04-02T18:28:48.499Z,0.60
2023-04-02T18:32:36.118Z,0.93
2023-04-02T18:36:43.047Z,0.85
2023-04-02T18:40:24.010Z,0.60
2023-04-02T18:44:18.098Z,0.30
2023-04-02T18:48:10.768Z,0.30
2023-04-02T18:51:36.911Z,0.50
2023-04-02T18:55:06.382Z,0.35
2023-04-02T18:58:57.175Z,0.60
2023-04-02T19:02:41.422Z,0.90
2023-04-02T19:06:10.136Z,0.88
2023-04-02T19:09:36.262Z,0.35
2023-04-02T19:12:59.619Z,0.28
2023-04-02T19:16:55.232Z,0.20
2023-04-02T19:20:18.920Z,0.15
2023-04-02T19:24:07.261Z,0.77
2023-04-02T19:27:48.649Z,0.75
2023-04-02T19:31:35.575Z,1.02
2023-04-02T19:35:34.486Z,0.80
2023-04-02T19:39:26.832Z,0.70
2023-04-02T19:42:52.968Z,0.68
2023-04-02T19:46:17.210Z,0.95
2023-04-02T19:49:42.622Z,1.33
2023-04-02T19:53:16.563Z,0.65
2023-04-02T19:56:44.246Z,1.00
2023-04-02T20:00:07.763Z,0.68
2023-04-02T20:03:34.599Z,0.60
2023-04-02T20:06:58.444Z,0.50
2023-04-02T20:10:23.250Z,0.40
2023-04-02T20:13:49.047Z,1.38
2023-04-02T20:17:12.654Z,0.98
2023-04-02T20:20:35.036Z,0.20
2023-04-02T20:23:58.408Z,0.98
2023-04-02T20:27:21.489Z,0.88
2023-04-02T20:30:55.120Z,1.00
2023-04-02T20:34:18.609Z,0.73
2023-04-02T20:37:42.534Z,0.65
2023-04-02T20:41:07.951Z,0.35
2023-04-02T20:44:36.854Z,0.88
2023-04-02T20:47:59.931Z,0.63
2023-04-02T20:51:23.128Z,0.45
2023-04-02T20:54:50.016Z,0.88
2023-04-02T20:58:17.816Z,0.88
2023-04-02T21:01:40.982Z,1.23
2023-04-02T21:05:13.405Z,2.00
2023-04-02T21:08:37.873Z,0.98
2023-04-02T21:12:07.790Z,0.52
2023-04-02T21:15:30.038Z,0.65
2023-04-02T21:18:53.809Z,0.98
2023-04-02T21:22:17.771Z,0.95
2023-04-02T21:25:41.484Z,0.35
2023-04-02T21:29:07.870Z,0.98
2023-04-02T21:32:32.216Z,0.40
2023-04-02T21:35:54.881Z,0.20
2023-04-02T21:39:24.359Z,0.30
2023-04-02T21:42:47.596Z,0.38
2023-04-02T21:46:12.781Z,0.30
2023-04-02T21:49:39.001Z,0.45
2023-04-02T21:53:01.606Z,0.60
2023-04-02T21:56:27.114Z,0.50
2023-04-02T21:59:50.134Z,0.77
2023-04-02T22:03:18.502Z,0.98
2023-04-02T22:06:47.843Z,0.30
2023-04-02T22:10:10.140Z,0.32
2023-04-02T22:13:32.288Z,0.52
2023-04-02T22:16:54.410Z,0.35
2023-04-02T22:20:16.477Z,0.47
2023-04-02T22:23:39.369Z,0.52
2023-04-02T22:27:01.348Z,0.35
2023-04-02T22:30:23.347Z,0.40
2023-04-02T22:33:46.131Z,0.90
2023-04-02T22:37:08.212Z,0.00
2023-04-02T22:40:30.277Z,0.38
2023-04-02T22:43:52.579Z,0.35
2023-04-02T22:47:14.583Z,0.43
2023-04-02T22:50:36.752Z,0.30
2023-04-02T22:53:59.316Z,0.70
2023-04-02T22:57:21.591Z,0.10
2023-04-02T23:00:43.644Z,1.10
2023-04-02T23:04:05.848Z,0.40
2023-04-02T23:07:28.050Z,0.47
2023-04-02T23:10:49.967Z,0.13
2023-04-02T23:14:11.952Z,0.00
2023-04-02T23:17:35.865Z,0.35
2023-04-02T23:20:58.145Z,0.65
2023-04-02T23:24:20.283Z,0.10
2023-04-02T23:27:42.266Z,0.17
2023-04-02T23:31:06.850Z,0.30
2023-04-02T23:34:28.924Z,0.20
2023-04-02T23:37:50.974Z,0.20
2023-04-02T23:41:18.707Z,0.10
2023-04-02T23:44:40.664Z,0.60
2023-04-02T23:48:02.654Z,0.25
2023-04-02T23:51:25.989Z,0.10
2023-04-02T23:54:48.002Z,0.08
2023-04-02T23:58:10.157Z,0.10
